sensor_id;sensor_type;location;lat;lon;timestamp;P1;durP1;ratioP1;P2;durP2;ratioP2
4603;SDS011;2314;48.272;11.562;2022-12-11T00:01:13;165.80;;;22.40;;
4603;SDS011;2314;48.272;11.562;2022-12-11T00:03:44;171.60;;;21.03;;
4603;SDS011;2314;48.272;11.562;2022-12-11T00:06:12;166.30;;;21.70;;
4603;SDS011;2314;48.272;11.562;2022-12-11T00:08:40;159.90;;;20.17;;
4603;SDS011;2314;48.272;11.562;2022-12-11T00:11:08;161.10;;;20.60;;
4603;SDS011;2314;48.272;11.562;2022-12-11T00:13:38;163.60;;;20.70;;
4603;SDS011;2314;48.272;11.562;2022-12-11T00:16:06;166.10;;;22.00;;
4603;SDS011;2314;48.272;11.562;2022-12-11T00:18:33;161.10;;;20.73;;
4603;SDS011;2314;48.272;11.562;2022-12-11T00:21:01;161.70;;;21.30;;
4603;SDS011;2314;48.272;11.562;2022-12-11T00:23:29;156.83;;;19.60;;
4603;SDS011;2314;48.272;11.562;2022-12-11T00:25:56;159.83;;;19.97;;
4603;SDS011;2314;48.272;11.562;2022-12-11T00:28:23;161.43;;;20.67;;
4603;SDS011;2314;48.272;11.562;2022-12-11T00:30:51;158.67;;;19.47;;
4603;SDS011;2314;48.272;11.562;2022-12-11T00:33:19;156.37;;;19.67;;
4603;SDS011;2314;48.272;11.562;2022-12-11T00:35:46;161.50;;;20.00;;
4603;SDS011;2314;48.272;11.562;2022-12-11T00:38:13;154.93;;;17.87;;
4603;SDS011;2314;48.272;11.562;2022-12-11T00:40:43;154.33;;;18.30;;
4603;SDS011;2314;48.272;11.562;2022-12-11T00:43:10;159.60;;;19.07;;
4603;SDS011;2314;48.272;11.562;2022-12-11T00:45:39;161.53;;;19.97;;
4603;SDS011;2314;48.272;11.562;2022-12-11T00:48:09;151.43;;;16.37;;
4603;SDS011;2314;48.272;11.562;2022-12-11T00:50:37;158.53;;;18.67;;
4603;SDS011;2314;48.272;11.562;2022-12-11T00:53:05;153.93;;;16.00;;
4603;SDS011;2314;48.272;11.562;2022-12-11T00:55:35;154.47;;;18.20;;
4603;SDS011;2314;48.272;11.562;2022-12-11T00:58:03;154.77;;;17.40;;
4603;SDS011;2314;48.272;11.562;2022-12-11T01:00:30;154.97;;;18.77;;
4603;SDS011;2314;48.272;11.562;2022-12-11T01:02:57;152.07;;;18.27;;
4603;SDS011;2314;48.272;11.562;2022-12-11T01:05:26;162.40;;;19.70;;
4603;SDS011;2314;48.272;11.562;2022-12-11T01:07:53;154.07;;;17.43;;
4603;SDS011;2314;48.272;11.562;2022-12-11T01:10:20;158.00;;;19.40;;
4603;SDS011;2314;48.272;11.562;2022-12-11T01:12:51;152.13;;;17.43;;
4603;SDS011;2314;48.272;11.562;2022-12-11T01:15:20;150.97;;;17.13;;
4603;SDS011;2314;48.272;11.562;2022-12-11T01:17:50;147.57;;;17.10;;
4603;SDS011;2314;48.272;11.562;2022-12-11T01:20:18;155.50;;;18.97;;
4603;SDS011;2314;48.272;11.562;2022-12-11T01:22:47;150.50;;;16.90;;
4603;SDS011;2314;48.272;11.562;2022-12-11T01:25:18;154.80;;;16.60;;
4603;SDS011;2314;48.272;11.562;2022-12-11T01:27:46;150.10;;;16.47;;
4603;SDS011;2314;48.272;11.562;2022-12-11T01:30:15;152.70;;;17.37;;
4603;SDS011;2314;48.272;11.562;2022-12-11T01:32:42;152.37;;;16.67;;
4603;SDS011;2314;48.272;11.562;2022-12-11T01:35:10;147.90;;;15.73;;
4603;SDS011;2314;48.272;11.562;2022-12-11T01:37:37;147.53;;;16.37;;
4603;SDS011;2314;48.272;11.562;2022-12-11T01:40:07;152.90;;;17.23;;
4603;SDS011;2314;48.272;11.562;2022-12-11T01:42:36;144.57;;;14.70;;
4603;SDS011;2314;48.272;11.562;2022-12-11T01:47:53;150.63;;;16.50;;
4603;SDS011;2314;48.272;11.562;2022-12-11T01:50:26;146.63;;;16.43;;
4603;SDS011;2314;48.272;11.562;2022-12-11T01:52:54;153.53;;;17.03;;
4603;SDS011;2314;48.272;11.562;2022-12-11T01:55:22;147.47;;;17.17;;
4603;SDS011;2314;48.272;11.562;2022-12-11T01:57:50;151.40;;;16.40;;
4603;SDS011;2314;48.272;11.562;2022-12-11T02:00:18;148.83;;;15.70;;
4603;SDS011;2314;48.272;11.562;2022-12-11T02:02:46;146.97;;;14.70;;
4603;SDS011;2314;48.272;11.562;2022-12-11T02:05:13;146.57;;;15.33;;
4603;SDS011;2314;48.272;11.562;2022-12-11T02:07:42;146.40;;;16.47;;
4603;SDS011;2314;48.272;11.562;2022-12-11T02:10:14;147.87;;;15.57;;
4603;SDS011;2314;48.272;11.562;2022-12-11T02:12:45;147.37;;;15.70;;
4603;SDS011;2314;48.272;11.562;2022-12-11T02:15:24;151.30;;;16.77;;
4603;SDS011;2314;48.272;11.562;2022-12-11T02:17:59;144.07;;;14.53;;
4603;SDS011;2314;48.272;11.562;2022-12-11T02:20:38;145.93;;;14.77;;
4603;SDS011;2314;48.272;11.562;2022-12-11T02:23:30;145.60;;;14.90;;
4603;SDS011;2314;48.272;11.562;2022-12-11T02:26:39;145.97;;;15.83;;
4603;SDS011;2314;48.272;11.562;2022-12-11T02:29:22;142.33;;;14.63;;
4603;SDS011;2314;48.272;11.562;2022-12-11T02:31:56;148.07;;;16.40;;
4603;SDS011;2314;48.272;11.562;2022-12-11T02:34:29;145.00;;;15.80;;
4603;SDS011;2314;48.272;11.562;2022-12-11T02:37:05;148.33;;;16.40;;
4603;SDS011;2314;48.272;11.562;2022-12-11T02:39:39;147.67;;;16.20;;
4603;SDS011;2314;48.272;11.562;2022-12-11T02:42:08;144.77;;;15.10;;
4603;SDS011;2314;48.272;11.562;2022-12-11T02:44:39;148.27;;;15.77;;
4603;SDS011;2314;48.272;11.562;2022-12-11T02:47:07;143.20;;;15.27;;
4603;SDS011;2314;48.272;11.562;2022-12-11T02:49:38;142.20;;;14.10;;
4603;SDS011;2314;48.272;11.562;2022-12-11T02:52:09;137.87;;;13.00;;
4603;SDS011;2314;48.272;11.562;2022-12-11T02:54:38;140.67;;;12.47;;
4603;SDS011;2314;48.272;11.562;2022-12-11T02:57:09;142.80;;;13.30;;
4603;SDS011;2314;48.272;11.562;2022-12-11T02:59:43;139.23;;;13.00;;
4603;SDS011;2314;48.272;11.562;2022-12-11T03:02:12;140.33;;;12.80;;
4603;SDS011;2314;48.272;11.562;2022-12-11T03:04:41;141.03;;;13.30;;
4603;SDS011;2314;48.272;11.562;2022-12-11T03:07:10;141.73;;;12.87;;
4603;SDS011;2314;48.272;11.562;2022-12-11T03:09:42;136.07;;;12.60;;
4603;SDS011;2314;48.272;11.562;2022-12-11T03:12:27;136.00;;;11.07;;
4603;SDS011;2314;48.272;11.562;2022-12-11T03:14:59;135.37;;;11.50;;
4603;SDS011;2314;48.272;11.562;2022-12-11T03:17:32;136.27;;;10.60;;
4603;SDS011;2314;48.272;11.562;2022-12-11T03:20:06;135.60;;;10.87;;
4603;SDS011;2314;48.272;11.562;2022-12-11T03:22:46;133.53;;;10.20;;
4603;SDS011;2314;48.272;11.562;2022-12-11T03:25:18;136.23;;;11.40;;
4603;SDS011;2314;48.272;11.562;2022-12-11T03:27:50;135.73;;;10.40;;
4603;SDS011;2314;48.272;11.562;2022-12-11T03:30:24;131.93;;;10.77;;
4603;SDS011;2314;48.272;11.562;2022-12-11T03:32:54;138.30;;;11.57;;
4603;SDS011;2314;48.272;11.562;2022-12-11T03:35:28;132.30;;;10.13;;
4603;SDS011;2314;48.272;11.562;2022-12-11T03:38:00;133.87;;;10.07;;
4603;SDS011;2314;48.272;11.562;2022-12-11T03:40:34;130.53;;;9.87;;
4603;SDS011;2314;48.272;11.562;2022-12-11T03:43:03;135.10;;;10.73;;
4603;SDS011;2314;48.272;11.562;2022-12-11T03:45:33;135.47;;;11.07;;
4603;SDS011;2314;48.272;11.562;2022-12-11T03:48:02;136.07;;;11.20;;
4603;SDS011;2314;48.272;11.562;2022-12-11T03:50:31;139.67;;;12.10;;
4603;SDS011;2314;48.272;11.562;2022-12-11T03:53:00;136.10;;;11.17;;
4603;SDS011;2314;48.272;11.562;2022-12-11T03:55:29;135.43;;;11.10;;
4603;SDS011;2314;48.272;11.562;2022-12-11T03:57:58;137.80;;;11.97;;
4603;SDS011;2314;48.272;11.562;2022-12-11T04:00:25;139.70;;;12.00;;
4603;SDS011;2314;48.272;11.562;2022-12-11T04:02:53;135.17;;;11.40;;
4603;SDS011;2314;48.272;11.562;2022-12-11T04:05:40;137.17;;;12.80;;
4603;SDS011;2314;48.272;11.562;2022-12-11T04:08:09;137.27;;;11.97;;
4603;SDS011;2314;48.272;11.562;2022-12-11T04:10:36;137.47;;;11.63;;
4603;SDS011;2314;48.272;11.562;2022-12-11T04:13:03;138.20;;;11.73;;
4603;SDS011;2314;48.272;11.562;2022-12-11T04:15:31;137.90;;;12.70;;
4603;SDS011;2314;48.272;11.562;2022-12-11T04:17:58;136.97;;;11.47;;
4603;SDS011;2314;48.272;11.562;2022-12-11T04:20:43;136.80;;;12.00;;
4603;SDS011;2314;48.272;11.562;2022-12-11T04:23:27;140.13;;;13.10;;
4603;SDS011;2314;48.272;11.562;2022-12-11T04:26:13;137.07;;;11.60;;
4603;SDS011;2314;48.272;11.562;2022-12-11T04:28:43;142.00;;;13.50;;
4603;SDS011;2314;48.272;11.562;2022-12-11T04:31:12;135.47;;;11.80;;
4603;SDS011;2314;48.272;11.562;2022-12-11T04:33:42;138.17;;;11.77;;
4603;SDS011;2314;48.272;11.562;2022-12-11T04:36:09;135.87;;;11.50;;
4603;SDS011;2314;48.272;11.562;2022-12-11T04:38:37;139.47;;;11.57;;
4603;SDS011;2314;48.272;11.562;2022-12-11T04:41:06;138.80;;;13.47;;
4603;SDS011;2314;48.272;11.562;2022-12-11T04:43:35;139.23;;;12.97;;
4603;SDS011;2314;48.272;11.562;2022-12-11T04:46:03;138.50;;;12.30;;
4603;SDS011;2314;48.272;11.562;2022-12-11T04:48:35;139.73;;;12.67;;
4603;SDS011;2314;48.272;11.562;2022-12-11T04:51:04;140.23;;;13.07;;
4603;SDS011;2314;48.272;11.562;2022-12-11T04:53:32;139.07;;;12.40;;
4603;SDS011;2314;48.272;11.562;2022-12-11T04:55:59;142.03;;;12.40;;
4603;SDS011;2314;48.272;11.562;2022-12-11T04:58:26;138.00;;;11.43;;
4603;SDS011;2314;48.272;11.562;2022-12-11T05:00:54;135.60;;;11.23;;
4603;SDS011;2314;48.272;11.562;2022-12-11T05:03:21;137.30;;;12.33;;
4603;SDS011;2314;48.272;11.562;2022-12-11T05:05:49;138.20;;;12.13;;
4603;SDS011;2314;48.272;11.562;2022-12-11T05:08:20;138.80;;;12.97;;
4603;SDS011;2314;48.272;11.562;2022-12-11T05:10:53;140.60;;;11.80;;
4603;SDS011;2314;48.272;11.562;2022-12-11T05:13:21;137.50;;;11.70;;
4603;SDS011;2314;48.272;11.562;2022-12-11T05:15:48;140.00;;;12.73;;
4603;SDS011;2314;48.272;11.562;2022-12-11T05:18:15;139.60;;;12.57;;
4603;SDS011;2314;48.272;11.562;2022-12-11T05:20:42;137.43;;;11.30;;
4603;SDS011;2314;48.272;11.562;2022-12-11T05:23:09;139.07;;;12.30;;
4603;SDS011;2314;48.272;11.562;2022-12-11T05:25:38;142.13;;;11.90;;
4603;SDS011;2314;48.272;11.562;2022-12-11T05:28:05;138.57;;;12.27;;
4603;SDS011;2314;48.272;11.562;2022-12-11T05:30:32;141.57;;;11.87;;
4603;SDS011;2314;48.272;11.562;2022-12-11T05:32:59;137.60;;;12.50;;
4603;SDS011;2314;48.272;11.562;2022-12-11T05:35:26;139.17;;;12.40;;
4603;SDS011;2314;48.272;11.562;2022-12-11T05:37:53;139.40;;;11.80;;
4603;SDS011;2314;48.272;11.562;2022-12-11T05:40:20;136.70;;;12.33;;
4603;SDS011;2314;48.272;11.562;2022-12-11T05:42:48;135.10;;;10.80;;
4603;SDS011;2314;48.272;11.562;2022-12-11T05:45:15;148.10;;;12.53;;
4603;SDS011;2314;48.272;11.562;2022-12-11T05:47:43;137.27;;;10.90;;
4603;SDS011;2314;48.272;11.562;2022-12-11T05:50:10;139.83;;;12.60;;
4603;SDS011;2314;48.272;11.562;2022-12-11T05:52:37;137.27;;;12.23;;
4603;SDS011;2314;48.272;11.562;2022-12-11T05:55:04;138.90;;;12.40;;
4603;SDS011;2314;48.272;11.562;2022-12-11T05:57:33;138.60;;;12.30;;
4603;SDS011;2314;48.272;11.562;2022-12-11T06:00:03;140.67;;;13.07;;
4603;SDS011;2314;48.272;11.562;2022-12-11T06:02:33;145.23;;;12.33;;
4603;SDS011;2314;48.272;11.562;2022-12-11T06:05:00;138.77;;;11.83;;
4603;SDS011;2314;48.272;11.562;2022-12-11T06:07:27;136.37;;;11.50;;
4603;SDS011;2314;48.272;11.562;2022-12-11T06:09:54;136.33;;;11.60;;
4603;SDS011;2314;48.272;11.562;2022-12-11T06:12:21;138.27;;;12.13;;
4603;SDS011;2314;48.272;11.562;2022-12-11T06:14:48;141.37;;;13.40;;
4603;SDS011;2314;48.272;11.562;2022-12-11T06:17:17;137.80;;;11.77;;
4603;SDS011;2314;48.272;11.562;2022-12-11T06:19:43;137.57;;;11.70;;
4603;SDS011;2314;48.272;11.562;2022-12-11T06:22:10;147.67;;;14.63;;
4603;SDS011;2314;48.272;11.562;2022-12-11T06:24:37;144.17;;;12.73;;
4603;SDS011;2314;48.272;11.562;2022-12-11T06:27:05;138.07;;;11.37;;
4603;SDS011;2314;48.272;11.562;2022-12-11T06:29:32;136.97;;;11.37;;
4603;SDS011;2314;48.272;11.562;2022-12-11T06:31:59;141.37;;;14.00;;
4603;SDS011;2314;48.272;11.562;2022-12-11T06:34:28;145.80;;;13.40;;
4603;SDS011;2314;48.272;11.562;2022-12-11T06:36:55;143.83;;;13.23;;
4603;SDS011;2314;48.272;11.562;2022-12-11T06:39:22;143.57;;;13.50;;
4603;SDS011;2314;48.272;11.562;2022-12-11T06:41:49;152.33;;;15.27;;
4603;SDS011;2314;48.272;11.562;2022-12-11T06:44:16;145.20;;;13.53;;
4603;SDS011;2314;48.272;11.562;2022-12-11T06:46:43;142.80;;;13.17;;
4603;SDS011;2314;48.272;11.562;2022-12-11T06:49:10;146.37;;;14.53;;
4603;SDS011;2314;48.272;11.562;2022-12-11T06:51:38;144.10;;;14.53;;
4603;SDS011;2314;48.272;11.562;2022-12-11T06:54:05;140.80;;;12.70;;
4603;SDS011;2314;48.272;11.562;2022-12-11T06:56:33;145.17;;;14.80;;
4603;SDS011;2314;48.272;11.562;2022-12-11T06:59:00;143.80;;;14.57;;
4603;SDS011;2314;48.272;11.562;2022-12-11T07:01:27;145.47;;;14.90;;
4603;SDS011;2314;48.272;11.562;2022-12-11T07:03:55;145.97;;;15.37;;
4603;SDS011;2314;48.272;11.562;2022-12-11T07:06:24;145.83;;;14.07;;
4603;SDS011;2314;48.272;11.562;2022-12-11T07:08:54;145.77;;;14.63;;
4603;SDS011;2314;48.272;11.562;2022-12-11T07:11:21;146.70;;;14.63;;
4603;SDS011;2314;48.272;11.562;2022-12-11T07:13:49;141.60;;;13.77;;
4603;SDS011;2314;48.272;11.562;2022-12-11T07:16:16;143.80;;;14.20;;
4603;SDS011;2314;48.272;11.562;2022-12-11T07:18:45;142.20;;;13.93;;
4603;SDS011;2314;48.272;11.562;2022-12-11T07:21:14;143.27;;;13.17;;
4603;SDS011;2314;48.272;11.562;2022-12-11T07:23:42;146.57;;;13.63;;
4603;SDS011;2314;48.272;11.562;2022-12-11T07:26:11;147.30;;;14.83;;
4603;SDS011;2314;48.272;11.562;2022-12-11T07:28:41;142.57;;;13.77;;
4603;SDS011;2314;48.272;11.562;2022-12-11T07:31:09;141.50;;;14.10;;
4603;SDS011;2314;48.272;11.562;2022-12-11T07:33:38;147.97;;;15.77;;
4603;SDS011;2314;48.272;11.562;2022-12-11T07:36:06;144.67;;;13.30;;
4603;SDS011;2314;48.272;11.562;2022-12-11T07:38:36;145.57;;;14.37;;
4603;SDS011;2314;48.272;11.562;2022-12-11T07:41:04;140.20;;;12.93;;
4603;SDS011;2314;48.272;11.562;2022-12-11T07:43:35;143.77;;;14.20;;
4603;SDS011;2314;48.272;11.562;2022-12-11T07:46:03;151.97;;;15.77;;
4603;SDS011;2314;48.272;11.562;2022-12-11T07:48:33;144.93;;;14.83;;
4603;SDS011;2314;48.272;11.562;2022-12-11T07:51:08;143.47;;;14.13;;
4603;SDS011;2314;48.272;11.562;2022-12-11T07:53:36;142.07;;;14.40;;
4603;SDS011;2314;48.272;11.562;2022-12-11T07:56:03;142.37;;;15.53;;
4603;SDS011;2314;48.272;11.562;2022-12-11T07:58:31;142.83;;;14.57;;
4603;SDS011;2314;48.272;11.562;2022-12-11T08:01:00;147.90;;;15.03;;
4603;SDS011;2314;48.272;11.562;2022-12-11T08:03:27;143.67;;;15.00;;
4603;SDS011;2314;48.272;11.562;2022-12-11T08:05:54;146.80;;;14.77;;
4603;SDS011;2314;48.272;11.562;2022-12-11T08:08:21;142.83;;;14.90;;
4603;SDS011;2314;48.272;11.562;2022-12-11T08:10:48;147.53;;;14.93;;
4603;SDS011;2314;48.272;11.562;2022-12-11T08:13:15;141.07;;;14.17;;
4603;SDS011;2314;48.272;11.562;2022-12-11T08:15:42;141.17;;;13.70;;
4603;SDS011;2314;48.272;11.562;2022-12-11T08:18:11;141.53;;;13.83;;
4603;SDS011;2314;48.272;11.562;2022-12-11T08:20:38;140.70;;;14.83;;
4603;SDS011;2314;48.272;11.562;2022-12-11T08:23:05;144.33;;;14.50;;
4603;SDS011;2314;48.272;11.562;2022-12-11T08:25:32;147.17;;;14.20;;
4603;SDS011;2314;48.272;11.562;2022-12-11T08:27:59;148.60;;;16.77;;
4603;SDS011;2314;48.272;11.562;2022-12-11T08:30:26;144.47;;;15.43;;
4603;SDS011;2314;48.272;11.562;2022-12-11T08:32:53;145.27;;;15.00;;
4603;SDS011;2314;48.272;11.562;2022-12-11T08:35:22;142.97;;;14.07;;
4603;SDS011;2314;48.272;11.562;2022-12-11T08:37:49;143.30;;;15.30;;
4603;SDS011;2314;48.272;11.562;2022-12-11T08:40:17;144.60;;;15.33;;
4603;SDS011;2314;48.272;11.562;2022-12-11T08:42:44;139.27;;;15.10;;
4603;SDS011;2314;48.272;11.562;2022-12-11T08:45:11;141.07;;;14.90;;
4603;SDS011;2314;48.272;11.562;2022-12-11T08:47:38;141.67;;;14.53;;
4603;SDS011;2314;48.272;11.562;2022-12-11T08:50:05;140.57;;;14.07;;
4603;SDS011;2314;48.272;11.562;2022-12-11T08:52:34;147.87;;;15.27;;
4603;SDS011;2314;48.272;11.562;2022-12-11T08:55:01;152.87;;;16.33;;
4603;SDS011;2314;48.272;11.562;2022-12-11T08:57:29;142.00;;;15.93;;
4603;SDS011;2314;48.272;11.562;2022-12-11T08:59:56;142.90;;;14.47;;
4603;SDS011;2314;48.272;11.562;2022-12-11T09:02:23;145.80;;;15.10;;
4603;SDS011;2314;48.272;11.562;2022-12-11T09:04:50;145.33;;;14.87;;
4603;SDS011;2314;48.272;11.562;2022-12-11T09:07:17;145.00;;;14.90;;
4603;SDS011;2314;48.272;11.562;2022-12-11T09:09:45;143.47;;;15.40;;
4603;SDS011;2314;48.272;11.562;2022-12-11T09:12:13;145.07;;;14.70;;
4603;SDS011;2314;48.272;11.562;2022-12-11T09:14:40;142.87;;;14.67;;
4603;SDS011;2314;48.272;11.562;2022-12-11T09:17:07;149.57;;;16.90;;
4603;SDS011;2314;48.272;11.562;2022-12-11T09:19:34;141.17;;;14.20;;
4603;SDS011;2314;48.272;11.562;2022-12-11T09:22:01;144.20;;;16.10;;
4603;SDS011;2314;48.272;11.562;2022-12-11T09:24:28;141.70;;;15.00;;
4603;SDS011;2314;48.272;11.562;2022-12-11T09:26:56;142.27;;;14.97;;
4603;SDS011;2314;48.272;11.562;2022-12-11T09:29:23;143.37;;;14.73;;
4603;SDS011;2314;48.272;11.562;2022-12-11T09:31:50;145.17;;;16.40;;
4603;SDS011;2314;48.272;11.562;2022-12-11T09:34:17;141.77;;;14.77;;
4603;SDS011;2314;48.272;11.562;2022-12-11T09:36:45;145.73;;;14.33;;
4603;SDS011;2314;48.272;11.562;2022-12-11T09:39:13;142.00;;;13.20;;
4603;SDS011;2314;48.272;11.562;2022-12-11T09:41:45;144.23;;;14.87;;
4603;SDS011;2314;48.272;11.562;2022-12-11T09:47:19;146.33;;;15.17;;
4603;SDS011;2314;48.272;11.562;2022-12-11T09:49:53;139.60;;;14.40;;
4603;SDS011;2314;48.272;11.562;2022-12-11T09:52:31;142.10;;;13.30;;
4603;SDS011;2314;48.272;11.562;2022-12-11T09:55:02;139.87;;;12.90;;
4603;SDS011;2314;48.272;11.562;2022-12-11T09:57:42;139.17;;;13.10;;
4603;SDS011;2314;48.272;11.562;2022-12-11T10:00:23;141.60;;;13.93;;
4603;SDS011;2314;48.272;11.562;2022-12-11T10:03:06;147.60;;;15.07;;
4603;SDS011;2314;48.272;11.562;2022-12-11T10:06:19;138.60;;;13.57;;
4603;SDS011;2314;48.272;11.562;2022-12-11T10:08:53;140.73;;;14.13;;
4603;SDS011;2314;48.272;11.562;2022-12-11T10:11:33;137.80;;;13.87;;
4603;SDS011;2314;48.272;11.562;2022-12-11T10:14:16;139.87;;;13.93;;
4603;SDS011;2314;48.272;11.562;2022-12-11T10:16:55;147.33;;;14.90;;
4603;SDS011;2314;48.272;11.562;2022-12-11T10:19:28;139.70;;;14.67;;
4603;SDS011;2314;48.272;11.562;2022-12-11T10:21:57;139.67;;;13.50;;
4603;SDS011;2314;48.272;11.562;2022-12-11T10:24:27;141.87;;;13.13;;
4603;SDS011;2314;48.272;11.562;2022-12-11T10:27:11;140.67;;;14.70;;
4603;SDS011;2314;48.272;11.562;2022-12-11T10:29:43;144.00;;;14.90;;
4603;SDS011;2314;48.272;11.562;2022-12-11T10:32:14;140.00;;;14.57;;
4603;SDS011;2314;48.272;11.562;2022-12-11T10:34:50;138.57;;;13.37;;
4603;SDS011;2314;48.272;11.562;2022-12-11T10:37:24;140.33;;;13.90;;
4603;SDS011;2314;48.272;11.562;2022-12-11T10:39:52;136.50;;;13.70;;
4603;SDS011;2314;48.272;11.562;2022-12-11T10:42:19;136.23;;;13.30;;
4603;SDS011;2314;48.272;11.562;2022-12-11T10:44:54;131.00;;;11.13;;
4603;SDS011;2314;48.272;11.562;2022-12-11T10:47:25;137.00;;;12.93;;
4603;SDS011;2314;48.272;11.562;2022-12-11T10:49:54;136.90;;;12.93;;
4603;SDS011;2314;48.272;11.562;2022-12-11T10:52:23;137.37;;;12.50;;
4603;SDS011;2314;48.272;11.562;2022-12-11T10:54:57;136.77;;;12.40;;
4603;SDS011;2314;48.272;11.562;2022-12-11T10:57:28;137.10;;;12.77;;
4603;SDS011;2314;48.272;11.562;2022-12-11T10:59:59;143.43;;;13.00;;
4603;SDS011;2314;48.272;11.562;2022-12-11T11:02:30;138.37;;;12.57;;
4603;SDS011;2314;48.272;11.562;2022-12-11T11:05:12;131.20;;;10.40;;
4603;SDS011;2314;48.272;11.562;2022-12-11T11:07:43;132.27;;;10.67;;
4603;SDS011;2314;48.272;11.562;2022-12-11T11:10:14;135.33;;;9.33;;
4603;SDS011;2314;48.272;11.562;2022-12-11T11:12:44;127.27;;;8.77;;
4603;SDS011;2314;48.272;11.562;2022-12-11T11:15:14;129.40;;;8.53;;
4603;SDS011;2314;48.272;11.562;2022-12-11T11:17:45;127.27;;;8.73;;
4603;SDS011;2314;48.272;11.562;2022-12-11T11:20:16;129.80;;;8.10;;
4603;SDS011;2314;48.272;11.562;2022-12-11T11:22:46;131.13;;;8.93;;
4603;SDS011;2314;48.272;11.562;2022-12-11T11:25:18;128.20;;;9.00;;
4603;SDS011;2314;48.272;11.562;2022-12-11T11:27:48;129.20;;;8.97;;
4603;SDS011;2314;48.272;11.562;2022-12-11T11:30:19;137.00;;;9.87;;
4603;SDS011;2314;48.272;11.562;2022-12-11T11:32:51;132.17;;;10.53;;
4603;SDS011;2314;48.272;11.562;2022-12-11T11:35:21;133.57;;;10.57;;
4603;SDS011;2314;48.272;11.562;2022-12-11T11:37:56;132.07;;;11.23;;
4603;SDS011;2314;48.272;11.562;2022-12-11T11:40:30;133.80;;;11.00;;
4603;SDS011;2314;48.272;11.562;2022-12-11T11:43:04;134.80;;;11.07;;
4603;SDS011;2314;48.272;11.562;2022-12-11T11:45:43;137.70;;;12.40;;
4603;SDS011;2314;48.272;11.562;2022-12-11T11:48:28;137.70;;;11.77;;
4603;SDS011;2314;48.272;11.562;2022-12-11T11:51:04;134.00;;;10.97;;
4603;SDS011;2314;48.272;11.562;2022-12-11T11:53:40;133.90;;;10.33;;
4603;SDS011;2314;48.272;11.562;2022-12-11T11:56:16;136.17;;;13.20;;
4603;SDS011;2314;48.272;11.562;2022-12-11T11:58:53;136.60;;;10.77;;
4603;SDS011;2314;48.272;11.562;2022-12-11T12:01:28;131.97;;;10.30;;
4603;SDS011;2314;48.272;11.562;2022-12-11T12:03:57;131.00;;;9.40;;
4603;SDS011;2314;48.272;11.562;2022-12-11T12:06:40;134.27;;;9.53;;
4603;SDS011;2314;48.272;11.562;2022-12-11T12:09:26;135.47;;;11.83;;
4603;SDS011;2314;48.272;11.562;2022-12-11T12:12:07;131.63;;;10.70;;
4603;SDS011;2314;48.272;11.562;2022-12-11T12:14:51;134.27;;;10.70;;
4603;SDS011;2314;48.272;11.562;2022-12-11T12:17:40;130.60;;;9.63;;
4603;SDS011;2314;48.272;11.562;2022-12-11T12:20:20;132.90;;;9.73;;
4603;SDS011;2314;48.272;11.562;2022-12-11T12:23:03;130.63;;;9.80;;
4603;SDS011;2314;48.272;11.562;2022-12-11T12:26:00;128.07;;;9.20;;
4603;SDS011;2314;48.272;11.562;2022-12-11T12:28:36;130.97;;;8.30;;
4603;SDS011;2314;48.272;11.562;2022-12-11T12:31:16;129.37;;;8.10;;
4603;SDS011;2314;48.272;11.562;2022-12-11T12:34:04;126.17;;;7.80;;
4603;SDS011;2314;48.272;11.562;2022-12-11T12:36:45;126.77;;;7.60;;
4603;SDS011;2314;48.272;11.562;2022-12-11T12:39:24;124.47;;;7.30;;
4603;SDS011;2314;48.272;11.562;2022-12-11T12:42:06;125.27;;;7.77;;
4603;SDS011;2314;48.272;11.562;2022-12-11T12:44:45;127.30;;;8.17;;
4603;SDS011;2314;48.272;11.562;2022-12-11T12:47:22;132.00;;;8.97;;
4603;SDS011;2314;48.272;11.562;2022-12-11T12:49:52;129.27;;;8.80;;
4603;SDS011;2314;48.272;11.562;2022-12-11T12:52:23;140.30;;;10.50;;
4603;SDS011;2314;48.272;11.562;2022-12-11T12:54:56;127.50;;;8.47;;
4603;SDS011;2314;48.272;11.562;2022-12-11T12:57:41;128.07;;;8.23;;
4603;SDS011;2314;48.272;11.562;2022-12-11T13:00:12;127.60;;;8.30;;
4603;SDS011;2314;48.272;11.562;2022-12-11T13:02:52;126.67;;;8.30;;
4603;SDS011;2314;48.272;11.562;2022-12-11T13:05:21;130.37;;;8.53;;
4603;SDS011;2314;48.272;11.562;2022-12-11T13:07:53;127.47;;;8.47;;
4603;SDS011;2314;48.272;11.562;2022-12-11T13:10:25;131.90;;;9.47;;
4603;SDS011;2314;48.272;11.562;2022-12-11T13:12:57;127.50;;;9.47;;
4603;SDS011;2314;48.272;11.562;2022-12-11T13:15:26;129.00;;;9.50;;
4603;SDS011;2314;48.272;11.562;2022-12-11T13:18:03;132.63;;;9.50;;
4603;SDS011;2314;48.272;11.562;2022-12-11T13:20:59;127.57;;;8.53;;
4603;SDS011;2314;48.272;11.562;2022-12-11T13:23:29;130.40;;;7.73;;
4603;SDS011;2314;48.272;11.562;2022-12-11T13:25:58;125.90;;;7.80;;
4603;SDS011;2314;48.272;11.562;2022-12-11T13:28:28;125.77;;;7.93;;
4603;SDS011;2314;48.272;11.562;2022-12-11T13:31:04;127.00;;;8.57;;
4603;SDS011;2314;48.272;11.562;2022-12-11T13:33:51;128.23;;;8.57;;
4603;SDS011;2314;48.272;11.562;2022-12-11T13:36:32;134.03;;;9.97;;
4603;SDS011;2314;48.272;11.562;2022-12-11T13:39:05;128.63;;;8.53;;
4603;SDS011;2314;48.272;11.562;2022-12-11T13:41:43;131.97;;;9.70;;
4603;SDS011;2314;48.272;11.562;2022-12-11T13:44:15;130.67;;;9.23;;
4603;SDS011;2314;48.272;11.562;2022-12-11T13:46:47;129.67;;;9.60;;
4603;SDS011;2314;48.272;11.562;2022-12-11T13:49:21;133.50;;;11.07;;
4603;SDS011;2314;48.272;11.562;2022-12-11T13:51:50;131.47;;;10.70;;
4603;SDS011;2314;48.272;11.562;2022-12-11T13:54:22;133.50;;;9.20;;
4603;SDS011;2314;48.272;11.562;2022-12-11T13:56:57;128.03;;;8.80;;
4603;SDS011;2314;48.272;11.562;2022-12-11T13:59:28;130.47;;;8.43;;
4603;SDS011;2314;48.272;11.562;2022-12-11T14:02:03;129.37;;;8.33;;
4603;SDS011;2314;48.272;11.562;2022-12-11T14:04:41;128.77;;;8.10;;
4603;SDS011;2314;48.272;11.562;2022-12-11T14:07:08;129.73;;;8.17;;
4603;SDS011;2314;48.272;11.562;2022-12-11T14:09:38;128.80;;;7.90;;
4603;SDS011;2314;48.272;11.562;2022-12-11T14:12:12;129.80;;;9.10;;
4603;SDS011;2314;48.272;11.562;2022-12-11T14:14:44;130.07;;;8.27;;
4603;SDS011;2314;48.272;11.562;2022-12-11T14:17:16;128.83;;;8.83;;
4603;SDS011;2314;48.272;11.562;2022-12-11T14:19:50;128.07;;;7.53;;
4603;SDS011;2314;48.272;11.562;2022-12-11T14:22:19;124.90;;;7.77;;
4603;SDS011;2314;48.272;11.562;2022-12-11T14:24:51;130.97;;;9.07;;
4603;SDS011;2314;48.272;11.562;2022-12-11T14:27:21;130.37;;;9.67;;
4603;SDS011;2314;48.272;11.562;2022-12-11T14:29:50;127.63;;;7.73;;
4603;SDS011;2314;48.272;11.562;2022-12-11T14:32:19;126.73;;;8.27;;
4603;SDS011;2314;48.272;11.562;2022-12-11T14:34:56;130.03;;;9.70;;
4603;SDS011;2314;48.272;11.562;2022-12-11T14:37:24;129.90;;;9.07;;
4603;SDS011;2314;48.272;11.562;2022-12-11T14:39:55;130.30;;;8.73;;
4603;SDS011;2314;48.272;11.562;2022-12-11T14:42:26;131.20;;;10.27;;
4603;SDS011;2314;48.272;11.562;2022-12-11T14:44:59;130.97;;;9.40;;
4603;SDS011;2314;48.272;11.562;2022-12-11T14:47:31;127.90;;;8.90;;
4603;SDS011;2314;48.272;11.562;2022-12-11T14:50:10;127.37;;;9.17;;
4603;SDS011;2314;48.272;11.562;2022-12-11T14:52:45;129.87;;;9.00;;